Time;durP1;ratioP1;P1;durP2;ratioP2;P2;SDS_P1;SDS_P2;PMS_P1;PMS_P2;Temp;Humidity;BMP_temperature;BMP_pressure;BME280_temperature;BME280_humidity;BME280_pressure;Samples;Min_cycle;Max_cycle;Signal;HPM_P1;HPM_P2
2021/11/16 00:00:58;;;;;;;19.90;17.77;;;;;;;16.21;67.17;102117.25;144994;626;5005;-87
2021/11/16 00:03:25;;;;;;;21.02;18.02;;;;;;;16.16;67.22;102117.09;144994;576;5004;-87
2021/11/16 00:05:54;;;;;;;22.15;18.05;;;;;;;16.16;67.42;102109.25;144994;568;5004;-88
2021/11/16 00:08:21;;;;;;;21.15;18.05;;;;;;;16.15;67.50;102107.50;144994;594;5005;-88
2021/11/16 00:10:49;;;;;;;22.10;17.90;;;;;;;16.14;67.49;102117.06;144994;650;5004;-89
2021/11/16 00:13:16;;;;;;;21.05;18.50;;;;;;;16.14;67.37;102110.94;144994;636;5004;-86
2021/11/16 00:15:44;;;;;;;20.65;18.45;;;;;;;16.14;67.49;102116.19;144994;574;5005;-88
2021/11/16 00:18:12;;;;;;;24.48;18.77;;;;;;;16.14;67.54;102118.81;144994;627;5004;-87
2021/11/16 00:20:45;;;;;;;20.65;18.45;;;;;;;16.12;67.15;102113.50;144994;577;5004;-88
2021/11/16 00:23:21;;;;;;;21.83;19.23;;;;;;;16.12;67.34;102113.50;144994;568;5004;-86
2021/11/16 00:25:51;;;;;;;22.33;19.45;;;;;;;16.12;67.43;102116.12;144994;579;5004;-88
2021/11/16 00:28:19;;;;;;;21.02;18.83;;;;;;;16.11;67.51;102114.38;144994;587;5004;-87
2021/11/16 00:30:46;;;;;;;20.85;18.67;;;;;;;16.11;67.52;102118.72;144994;594;5004;-87
2021/11/16 00:33:16;;;;;;;21.92;17.80;;;;;;;16.11;67.71;102114.38;144994;587;5004;-86
2021/11/16 00:35:44;;;;;;;21.12;17.67;;;;;;;16.12;67.90;102115.25;144994;592;5004;-87
2021/11/16 00:38:14;;;;;;;20.17;17.98;;;;;;;16.12;68.24;102117.87;144994;575;5004;-87
2021/11/16 00:40:43;;;;;;;22.60;18.37;;;;;;;16.14;68.05;102114.44;144994;581;5004;-86
2021/11/16 00:43:09;;;;;;;20.75;18.42;;;;;;;16.18;67.91;102107.59;144994;586;5004;-85
2021/11/16 00:45:38;;;;;;;21.25;17.85;;;;;;;16.18;67.79;102118.06;144994;624;5004;-87
2021/11/16 00:48:07;;;;;;;24.37;18.45;;;;;;;16.16;67.93;102122.34;144994;563;5004;-88
2021/11/16 00:50:36;;;;;;;22.15;18.45;;;;;;;16.17;67.64;102120.63;144994;622;5004;-87
2021/11/16 00:53:07;;;;;;;21.45;18.35;;;;;;;16.16;67.91;102121.47;144994;585;5004;-88
2021/11/16 00:55:35;;;;;;;20.85;18.62;;;;;;;16.14;67.73;102116.19;144993;586;5004;-87
2021/11/16 00:58:02;;;;;;;23.62;18.55;;;;;;;16.14;67.90;102118.81;144994;672;5002;-89
2021/11/16 01:00:29;;;;;;;21.98;18.15;;;;;;;16.12;67.84;102116.12;144994;597;5002;-86
2021/11/16 01:02:56;;;;;;;20.67;17.70;;;;;;;16.13;67.79;102122.28;144994;588;5002;-87
2021/11/16 01:05:23;;;;;;;20.73;17.87;;;;;;;16.14;67.91;102118.81;144994;638;5002;-88
2021/11/16 01:07:50;;;;;;;22.70;18.00;;;;;;;16.15;68.01;102110.09;144994;597;5002;-87
2021/11/16 01:10:20;;;;;;;21.85;19.50;;;;;;;16.14;67.98;102111.81;144994;592;5002;-87
2021/11/16 01:12:48;;;;;;;22.40;17.83;;;;;;;16.08;68.20;102108.13;144994;599;5002;-88
2021/11/16 01:15:15;;;;;;;20.45;17.90;;;;;;;16.10;68.18;102109.97;144994;580;5002;-87
2021/11/16 01:17:43;;;;;;;23.33;18.98;;;;;;;16.08;68.28;102111.66;144994;586;5002;-87
2021/11/16 01:20:12;;;;;;;23.83;19.50;;;;;;;16.01;68.54;102109.69;144994;585;5002;-87
2021/11/16 01:22:39;;;;;;;21.20;17.73;;;;;;;16.01;68.34;102111.44;144994;596;5002;-86
2021/11/16 01:25:09;;;;;;;20.33;17.45;;;;;;;16.02;68.28;102106.25;144994;595;5002;-88
2021/11/16 01:27:36;;;;;;;20.62;17.33;;;;;;;16.04;68.18;102106.28;144994;613;5002;-87
2021/11/16 01:30:13;;;;;;;21.08;17.62;;;;;;;16.05;68.04;102100.19;144994;588;5002;-85
2021/11/16 01:32:48;;;;;;;19.27;16.35;;;;;;;16.06;68.44;102096.75;144993;608;5002;-88
2021/11/16 01:35:15;;;;;;;18.90;16.23;;;;;;;16.11;68.01;102103.00;144994;633;5002;-88
2021/11/16 01:37:43;;;;;;;20.65;16.87;;;;;;;16.17;68.11;102105.78;144994;631;5002;-88
2021/11/16 01:40:17;;;;;;;20.65;16.25;;;;;;;16.18;67.54;102097.09;144994;624;5002;-87
2021/11/16 01:42:48;;;;;;;19.85;15.48;;;;;;;16.16;67.78;102101.37;144994;641;5002;-87
2021/11/16 01:45:16;;;;;;;20.50;14.45;;;;;;;16.09;67.76;102099.44;144994;577;5002;-87
2021/11/16 01:47:43;;;;;;;17.83;13.95;;;;;;;16.08;67.81;102102.91;144994;583;5002;-87
2021/11/16 01:50:12;;;;;;;18.48;14.00;;;;;;;16.09;67.78;102099.44;144994;624;5002;-88
2021/11/16 01:52:39;;;;;;;18.10;13.73;;;;;;;16.08;67.86;102089.81;144994;576;5002;-86
2021/11/16 01:55:08;;;;;;;16.12;13.98;;;;;;;16.10;67.83;102098.63;144994;564;5002;-87
2021/11/16 01:57:36;;;;;;;15.75;12.95;;;;;;;16.12;67.79;102096.91;144994;602;5002;-87
2021/11/16 02:00:06;;;;;;;13.75;11.70;;;;;;;16.07;68.00;102102.03;144994;577;5003;-83
2021/11/16 02:02:33;;;;;;;15.23;11.27;;;;;;;16.04;67.83;102106.28;144994;577;5002;-87
2021/11/16 02:05:04;;;;;;;13.15;10.63;;;;;;;16.05;67.74;102108.97;144994;581;5002;-86
2021/11/16 02:07:33;;;;;;;13.07;10.60;;;;;;;16.11;67.78;102100.38;144994;627;5002;-86
2021/11/16 02:10:04;;;;;;;12.15;10.15;;;;;;;16.17;67.62;102105.78;144994;621;5002;-89
2021/11/16 02:12:33;;;;;;;16.02;10.32;;;;;;;16.26;67.68;102108.69;144994;649;5002;-93
2021/11/16 02:15:00;;;;;;;13.48;10.48;;;;;;;16.32;67.30;102106.25;144994;641;5002;-87
2021/11/16 02:17:26;;;;;;;12.45;10.57;;;;;;;16.25;67.26;102104.28;144994;605;5002;-88
2021/11/16 02:19:53;;;;;;;13.25;10.20;;;;;;;16.25;67.35;102095.53;144994;575;5002;-88
2021/11/16 02:22:20;;;;;;;12.30;11.00;;;;;;;16.22;67.05;102098.94;144994;570;5002;-88
2021/11/16 02:24:47;;;;;;;13.35;10.93;;;;;;;16.20;67.20;102098.03;144994;641;5002;-86
2021/11/16 02:27:31;;;;;;;12.30;10.63;;;;;;;16.21;67.47;102101.53;144994;615;5002;-89
2021/11/16 02:30:01;;;;;;;14.55;10.68;;;;;;;16.19;67.40;102100.59;144994;596;5002;-86
2021/11/16 02:32:30;;;;;;;12.07;10.55;;;;;;;16.21;67.09;102112.00;144994;667;5002;-87
2021/11/16 02:34:57;;;;;;;15.48;10.13;;;;;;;16.21;67.14;102106.75;144994;585;5002;-85
2021/11/16 02:37:24;;;;;;;13.60;11.02;;;;;;;16.20;67.04;102105.88;144994;590;5002;-84
2021/11/16 02:39:53;;;;;;;13.60;11.23;;;;;;;16.18;66.81;102104.06;144994;604;5002;-87
2021/11/16 02:42:20;;;;;;;15.68;10.50;;;;;;;16.14;66.70;102095.22;144994;581;5002;-87
2021/11/16 02:44:47;;;;;;;13.82;10.82;;;;;;;16.12;66.89;102099.53;144994;591;5002;-86
2021/11/16 02:47:14;;;;;;;15.85;11.23;;;;;;;16.09;66.83;102099.44;144994;569;5002;-85
2021/11/16 02:49:42;;;;;;;14.45;11.70;;;;;;;16.07;66.86;102096.78;144994;612;5002;-88
2021/11/16 02:52:13;;;;;;;14.73;12.07;;;;;;;16.02;67.05;102107.97;144994;569;5002;-87
2021/11/16 02:54:41;;;;;;;15.10;12.52;;;;;;;16.01;66.95;102114.06;144994;629;5002;-84
2021/11/16 02:57:10;;;;;;;16.02;10.70;;;;;;;15.81;66.62;102103.84;144994;574;5002;-86
2021/11/16 02:59:37;;;;;;;12.98;11.20;;;;;;;15.80;67.37;102093.38;144994;611;5002;-86
2021/11/16 03:02:05;;;;;;;17.58;12.27;;;;;;;15.80;67.53;102096.84;144994;571;5002;-87
2021/11/16 03:04:34;;;;;;;16.27;11.90;;;;;;;15.83;67.43;102089.09;144994;569;5002;-84
2021/11/16 03:07:18;;;;;;;18.67;12.25;;;;;;;15.84;67.48;102093.47;144994;626;5006;-86
2021/11/16 03:09:51;;;;;;;16.60;12.73;;;;;;;15.88;67.51;102095.34;144994;577;5002;-85
2021/11/16 03:12:18;;;;;;;14.20;11.10;;;;;;;15.94;67.00;102103.41;144994;585;5002;-84
2021/11/16 03:14:46;;;;;;;14.93;11.60;;;;;;;15.94;67.06;102098.16;144994;651;5002;-87
2021/11/16 03:17:12;;;;;;;16.62;12.05;;;;;;;15.92;67.19;102093.69;144994;655;5002;-85
2021/11/16 03:19:39;;;;;;;14.75;11.98;;;;;;;15.94;67.31;102106.00;144994;637;5015;-86
2021/11/16 03:22:09;;;;;;;13.95;11.15;;;;;;;15.97;67.05;102105.19;144994;670;5002;-87
2021/11/16 03:24:36;;;;;;;16.62;10.98;;;;;;;16.00;67.20;102105.28;144993;607;5002;-86
2021/11/16 03:27:09;;;;;;;14.77;11.63;;;;;;;16.03;67.13;102107.13;144994;584;5002;-86
2021/11/16 03:29:42;;;;;;;13.77;11.12;;;;;;;16.05;67.00;102103.72;144994;566;5002;-85
2021/11/16 03:32:12;;;;;;;13.98;11.00;;;;;;;16.03;66.93;102094.91;144994;569;5002;-87
2021/11/16 03:34:42;;;;;;;17.25;11.30;;;;;;;16.05;66.92;102094.94;144994;641;4566;-86
2021/11/16 03:37:09;;;;;;;17.45;11.68;;;;;;;16.00;66.98;102099.19;144994;584;4580;-85
2021/11/16 03:39:37;;;;;;;14.63;11.57;;;;;;;15.97;67.18;102086.88;144993;613;4572;-86
2021/11/16 03:42:06;;;;;;;14.80;10.30;;;;;;;15.93;67.26;102083.28;144992;572;6002;-87
2021/11/16 03:44:33;;;;;;;14.93;10.95;;;;;;;15.90;67.49;102083.19;144991;565;6002;-82
2021/11/16 03:47:13;;;;;;;12.40;9.60;;;;;;;15.90;66.79;102082.31;144992;569;6002;-83
2021/11/16 03:49:49;;;;;;;11.63;9.20;;;;;;;15.84;67.30;102088.22;144992;581;6002;-87
2021/11/16 03:52:22;;;;;;;14.98;9.65;;;;;;;15.88;67.47;102094.47;144992;574;6002;-86
2021/11/16 03:54:49;;;;;;;12.13;9.05;;;;;;;15.84;67.51;102098.72;144992;583;6002;-86
2021/11/16 03:57:15;;;;;;;12.73;9.20;;;;;;;15.79;67.35;102100.31;144992;591;6002;-87
2021/11/16 03:59:42;;;;;;;11.68;9.18;;;;;;;15.64;67.67;102097.19;144992;570;6002;-87
2021/11/16 04:02:08;;;;;;;9.95;7.62;;;;;;;15.64;67.62;102091.94;144992;595;6002;-87
2021/11/16 04:04:35;;;;;;;11.05;7.95;;;;;;;15.66;67.37;102082.44;144992;572;6002;-87
2021/11/16 04:07:01;;;;;;;9.57;7.40;;;;;;;15.69;67.51;102088.63;144992;589;6002;-87
2021/11/16 04:09:28;;;;;;;11.88;8.20;;;;;;;15.72;67.51;102087.84;144992;592;6002;-84
2021/11/16 04:11:57;;;;;;;12.65;8.20;;;;;;;15.75;67.24;102087.94;144992;577;6002;-86
2021/11/16 04:14:24;;;;;;;10.60;7.78;;;;;;;15.78;67.19;102088.97;144992;579;6002;-89
2021/11/16 04:17:04;;;;;;;10.32;8.32;;;;;;;15.78;67.08;102088.97;144992;569;6002;-86
2021/11/16 04:20:00;;;;;;;10.95;8.05;;;;;;;15.82;67.25;102089.94;144992;579;6002;-86
2021/11/16 04:22:30;;;;;;;12.32;8.23;;;;;;;15.93;67.21;102092.88;144992;564;6002;-87
2021/11/16 04:24:58;;;;;;;13.30;8.27;;;;;;;15.98;66.85;102085.16;144991;607;6002;-86
2021/11/16 04:27:24;;;;;;;10.75;8.25;;;;;;;15.95;66.67;102088.56;144992;597;6002;-89
2021/11/16 04:29:51;;;;;;;12.02;8.35;;;;;;;15.92;66.86;102080.59;144992;569;6002;-86
2021/11/16 04:32:17;;;;;;;15.57;7.93;;;;;;;15.93;66.67;102085.00;144992;620;6002;-86
2021/11/16 04:34:44;;;;;;;13.13;8.95;;;;;;;15.91;66.66;102086.72;144992;590;6002;-86
2021/11/16 04:37:10;;;;;;;14.35;9.13;;;;;;;15.91;66.79;102090.22;144992;573;6002;-86
2021/11/16 04:39:37;;;;;;;13.50;9.60;;;;;;;15.81;66.82;102089.88;144992;571;6002;-85
2021/11/16 04:42:04;;;;;;;13.60;9.30;;;;;;;15.72;67.34;102090.47;144992;582;6002;-86
2021/11/16 04:44:31;;;;;;;12.98;9.25;;;;;;;15.65;67.31;102093.72;144992;578;6002;-85
2021/11/16 04:46:59;;;;;;;12.02;9.40;;;;;;;15.60;67.04;102089.25;144992;598;6002;-88
2021/11/16 04:49:31;;;;;;;10.00;8.10;;;;;;;15.56;67.61;102087.37;144992;584;6002;-86
2021/11/16 04:52:09;;;;;;;11.23;8.68;;;;;;;15.57;67.52;102093.50;144992;584;6002;-86
2021/11/16 04:55:00;;;;;;;11.45;8.35;;;;;;;15.59;66.98;102082.25;144992;619;6002;-86
2021/11/16 05:03:02;;;;;;;11.60;8.93;;;;;;;15.40;67.87;102083.38;144992;562;6004;-87
2021/11/16 05:05:28;;;;;;;12.55;8.05;;;;;;;15.45;67.93;102082.66;144992;562;6004;-86
2021/11/16 05:07:58;;;;;;;11.48;8.38;;;;;;;15.48;67.52;102081.03;144992;583;6004;-85
2021/11/16 05:10:26;;;;;;;11.23;7.75;;;;;;;15.52;67.37;102076.75;144992;565;6004;-87
2021/11/16 05:12:55;;;;;;;12.85;7.65;;;;;;;15.59;67.32;102079.62;144992;586;6004;-86
2021/11/16 05:15:23;;;;;;;11.63;7.80;;;;;;;15.65;67.33;102084.13;144992;605;6004;-89
2021/11/16 05:17:51;;;;;;;13.15;8.00;;;;;;;15.66;67.29;102100.75;144992;590;6004;-88
2021/11/16 05:20:21;;;;;;;10.70;7.37;;;;;;;15.68;66.76;102097.31;144992;595;6004;-87
2021/11/16 05:22:51;;;;;;;12.50;7.80;;;;;;;15.67;66.91;102097.28;144992;613;6004;-85
2021/11/16 05:25:18;;;;;;;11.82;7.75;;;;;;;15.69;66.58;102103.47;144992;588;6004;-86
2021/11/16 05:27:45;;;;;;;19.42;9.02;;;;;;;15.71;66.70;102107.00;144992;569;6004;-85
2021/11/16 05:30:15;;;;;;;21.42;9.10;;;;;;;15.71;66.87;102101.78;144992;590;6004;-88
2021/11/16 05:32:43;;;;;;;14.20;7.22;;;;;;;15.78;66.61;102103.78;144992;589;6004;-89
2021/11/16 05:35:12;;;;;;;16.95;8.52;;;;;;;15.84;66.83;102113.53;144992;613;6004;-89
2021/11/16 05:37:40;;;;;;;14.87;8.23;;;;;;;15.90;66.74;102113.72;144992;634;6004;-88
2021/11/16 05:40:08;;;;;;;13.52;8.23;;;;;;;15.97;66.45;102115.66;144992;595;6004;-90
2021/11/16 05:42:35;;;;;;;12.32;8.00;;;;;;;16.00;66.42;102112.28;144992;632;6004;-89
2021/11/16 05:45:09;;;;;;;13.23;7.55;;;;;;;16.02;66.31;102124.59;144992;581;6004;-90
2021/11/16 05:47:38;;;;;;;13.27;9.02;;;;;;;16.05;66.40;102135.16;144992;571;6004;-90
2021/11/16 06:46:59;;;;;;;10.23;5.97;;;;;;;16.12;63.91;102191.22;144992;621;6002;-89
2021/11/16 06:49:52;;;;;;;8.50;5.90;;;;;;;16.15;63.73;102180.84;144992;673;6002;-89
2021/11/16 06:52:43;;;;;;;8.88;5.68;;;;;;;16.23;63.70;102188.94;144992;589;6004;-90
2021/11/16 06:55:10;;;;;;;9.98;7.32;;;;;;;16.32;64.02;102197.94;144992;569;6002;-89
2021/11/16 06:57:38;;;;;;;13.95;8.77;;;;;;;16.35;63.64;102196.25;144992;573;6002;-90
2021/11/16 07:20:34;;;;;;;8.43;5.87;;;;;;;16.13;63.62;102195.63;144992;623;6002;-90
2021/11/16 07:23:01;;;;;;;13.43;8.43;;;;;;;16.04;60.94;102190.09;144992;608;6002;-88
2021/11/16 07:25:28;;;;;;;11.63;7.05;;;;;;;15.96;63.09;102190.75;144992;691;6002;-90
2021/11/16 07:27:56;;;;;;;13.77;7.15;;;;;;;16.05;63.59;102191.88;144992;570;6002;-90
2021/11/16 07:30:26;;;;;;;11.48;7.05;;;;;;;16.17;63.23;102189.63;144992;633;6002;-90
2021/11/16 07:32:56;;;;;;;10.75;6.18;;;;;;;16.23;62.94;102188.94;144992;599;6002;-89
2021/11/16 07:35:33;;;;;;;11.55;6.22;;;;;;;16.32;62.69;102195.34;144992;591;6002;-91
2021/11/16 09:08:27;;;;;;;16.48;5.97;;;;;;;16.45;61.02;102219.28;144992;575;6002;-89
2021/11/16 12:52:49;;;;;;;20.73;8.63;;;;;;;16.04;61.79;102061.75;144994;565;5002;-83
2021/11/16 12:55:52;;;;;;;10.30;7.60;;;;;;;16.03;61.52;102063.47;144994;570;5002;-88
2021/11/16 12:58:29;;;;;;;10.80;7.68;;;;;;;15.93;61.65;102064.94;144994;587;5004;-87
2021/11/16 13:00:56;;;;;;;12.45;7.87;;;;;;;15.90;62.00;102066.59;144994;656;5004;-85
2021/11/16 13:03:59;;;;;;;9.82;7.57;;;;;;;15.88;61.81;102063.94;144994;583;5004;-90
2021/11/16 13:06:35;;;;;;;10.00;7.75;;;;;;;15.90;62.35;102066.59;144994;583;5002;-88
2021/11/16 13:09:06;;;;;;;11.52;7.60;;;;;;;15.84;62.23;102063.78;144994;593;5002;-88
2021/11/16 13:11:54;;;;;;;10.88;8.05;;;;;;;15.91;62.06;102071.00;144994;593;5002;-90
2021/11/16 13:14:59;;;;;;;12.20;7.75;;;;;;;15.73;62.90;102068.66;144994;586;5002;-87
2021/11/16 13:18:02;;;;;;;11.50;7.93;;;;;;;15.74;62.58;102065.22;144993;652;5004;-86
2021/11/16 13:20:50;;;;;;;10.07;7.60;;;;;;;15.65;62.40;102071.03;144994;569;5004;-90
2021/11/16 13:23:45;;;;;;;11.80;6.75;;;;;;;15.71;62.20;102067.75;144994;563;5004;-88
2021/11/16 13:26:28;;;;;;;10.50;6.65;;;;;;;15.73;61.85;102060.81;144994;592;5004;-87
2021/11/16 13:29:23;;;;;;;;;;;;;;;;;;;;;
2021/11/16 13:32:19;;;;;;;10.32;7.90;;;;;;;15.60;62.23;102075.25;144994;576;5002;-90
2021/11/16 13:34:49;;;;;;;11.40;8.57;;;;;;;15.63;62.60;102079.72;144994;584;5004;-88
2021/11/16 13:37:28;;;;;;;9.18;7.28;;;;;;;15.62;62.38;102078.84;144994;594;5004;-87
2021/11/16 13:40:17;;;;;;;17.90;7.78;;;;;;;15.64;62.09;102079.75;144994;654;5005;-86
2021/11/16 13:42:45;;;;;;;9.65;7.90;;;;;;;15.59;62.47;102090.09;144994;689;5002;-88
2021/11/16 13:45:14;;;;;;;11.02;7.18;;;;;;;15.54;62.30;102094.31;144994;609;5002;-88
2021/11/16 13:47:47;;;;;;;11.73;7.47;;;;;;;15.58;62.15;102098.78;144994;564;5002;-87
2021/11/16 13:50:31;;;;;;;7.68;6.32;;;;;;;15.42;61.75;102096.53;144994;567;5002;-92
2021/11/16 13:53:07;;;;;;;8.50;6.00;;;;;;;15.36;62.14;102097.19;144994;601;5002;-82
2021/11/16 13:55:41;;;;;;;11.00;5.95;;;;;;;15.35;62.08;102098.06;144994;586;5003;-84
2021/11/16 13:58:13;;;;;;;10.02;6.30;;;;;;;15.42;61.83;102100.03;144994;498;5002;-86
2021/11/16 14:00:50;;;;;;;9.80;6.68;;;;;;;15.31;62.08;102103.16;144994;629;5002;-83
2021/11/16 14:03:23;;;;;;;8.45;5.78;;;;;;;15.23;62.60;102092.44;144994;633;5002;-86
2021/11/16 14:06:00;;;;;;;9.43;6.80;;;;;;;15.25;62.58;102088.13;144994;569;5002;-90
2021/11/16 14:14:44;;;;;;;;;;;;;;;;;;;;;
2021/11/16 14:17:27;;;;;;;11.48;7.28;;;;;;;15.62;62.07;102094.53;144994;467;5002;-87
2021/11/16 14:19:58;;;;;;;14.70;10.30;;;;;;;15.68;61.93;102089.47;144994;588;5002;-87
2021/11/16 14:22:41;;;;;;;9.15;7.75;;;;;;;15.78;61.89;102086.34;144994;592;5002;-87
2021/11/16 14:25:19;;;;;;;13.43;7.85;;;;;;;15.82;61.40;102081.19;144994;623;5002;-86
2021/11/16 14:28:02;;;;;;;10.52;7.62;;;;;;;15.81;61.59;102082.03;144994;602;5002;-89
2021/11/16 14:30:31;;;;;;;9.13;8.10;;;;;;;15.79;61.54;102076.75;144994;597;5002;-87
2021/11/16 14:33:08;;;;;;;11.45;8.50;;;;;;;15.80;61.53;102086.38;144994;660;5002;-88
2021/11/16 14:35:40;;;;;;;13.38;7.57;;;;;;;15.70;61.82;102068.56;144994;643;5002;-87
2021/11/16 14:38:07;;;;;;;10.45;7.57;;;;;;;15.74;61.69;102081.81;144994;612;5002;-88
2021/11/16 14:40:37;;;;;;;11.00;7.78;;;;;;;15.78;61.68;102068.00;144993;572;5002;-86
2021/11/16 14:43:17;;;;;;;10.32;7.57;;;;;;;15.81;61.35;102067.19;144994;577;5002;-88
2021/11/16 14:45:44;;;;;;;15.23;9.05;;;;;;;15.81;61.69;102069.81;144994;673;5016;-87
2021/11/16 14:48:17;;;;;;;10.38;9.25;;;;;;;15.81;61.41;102066.31;144993;625;5002;-87
2021/11/16 14:51:04;;;;;;;12.23;9.73;;;;;;;15.77;61.63;102063.59;144994;579;5002;-89
2021/11/16 14:53:33;;;;;;;11.77;9.50;;;;;;;15.79;61.63;102053.19;144994;577;5002;-89
2021/11/16 14:55:59;;;;;;;12.02;9.50;;;;;;;15.80;61.77;102044.50;144994;565;5002;-86
2021/11/16 14:58:28;;;;;;;14.70;10.82;;;;;;;15.76;61.68;102040.91;144994;577;5002;-87
2021/11/16 15:00:55;;;;;;;15.27;11.60;;;;;;;15.81;61.72;102035.78;144994;573;5002;-86
2021/11/16 15:03:28;;;;;;;21.02;13.57;;;;;;;15.82;61.69;102034.94;144994;616;5002;-86
2021/11/16 15:06:06;;;;;;;18.00;12.65;;;;;;;15.87;61.81;102041.19;144994;568;5002;-89
2021/11/16 15:08:34;;;;;;;16.00;11.63;;;;;;;15.89;61.72;102036.00;144994;580;5016;-87
2021/11/16 15:11:05;;;;;;;16.85;13.25;;;;;;;15.83;61.94;102041.97;144994;587;5002;-87
2021/11/16 15:13:50;;;;;;;15.00;11.98;;;;;;;15.84;61.54;102041.09;144994;563;5002;-87
2021/11/16 15:16:20;;;;;;;29.20;22.95;;;;;;;15.81;61.76;102037.53;144993;651;5002;-87
2021/11/16 15:19:29;;;;;;;23.30;15.93;;;;;;;15.81;61.58;102042.75;144994;571;5002;-87
2021/11/16 15:22:14;;;;;;;14.60;11.45;;;;;;;15.81;62.03;102050.59;144994;596;5002;-87
2021/11/16 15:27:31;;;;;;;17.12;13.13;;;;;;;15.86;61.97;102044.69;144994;628;5004;-87
2021/11/16 15:30:19;;;;;;;16.55;11.27;;;;;;;15.88;61.97;102056.06;144994;564;5004;-87
2021/11/16 15:33:29;;;;;;;13.77;10.85;;;;;;;15.81;61.75;102056.72;144994;570;5002;-87
2021/11/16 15:36:23;;;;;;;15.60;10.68;;;;;;;15.68;62.27;102060.69;144994;586;5004;-86
2021/11/16 15:39:02;;;;;;;18.45;12.48;;;;;;;15.67;62.03;102058.00;144994;580;5002;-87
2021/11/16 15:41:47;;;;;;;17.00;11.90;;;;;;;15.61;62.20;102061.34;144994;605;5002;-89
2021/11/16 15:44:51;;;;;;;10.52;8.18;;;;;;;15.52;62.47;102075.03;144994;569;5002;-89
2021/11/16 15:50:33;;;;;;;11.95;8.75;;;;;;;15.45;62.60;102075.69;144994;568;5004;-86
2021/11/16 15:53:25;;;;;;;12.48;8.38;;;;;;;15.34;62.88;102074.47;144994;584;5004;-86
2021/11/16 15:58:55;;;;;;;14.52;8.48;;;;;;;15.28;63.06;102079.50;144994;618;5004;-88
2021/11/16 16:01:34;;;;;;;13.77;10.20;;;;;;;15.33;62.70;102076.16;144994;572;5004;-88
2021/11/16 16:04:05;;;;;;;13.25;9.85;;;;;;;15.32;63.04;102083.97;144994;609;5004;-89
2021/11/16 16:06:33;;;;;;;14.15;9.98;;;;;;;15.30;62.80;102083.91;144994;679;5004;-85
2021/11/16 16:09:19;;;;;;;15.07;11.23;;;;;;;15.28;63.09;102082.13;144994;634;5004;-86
2021/11/16 16:11:58;;;;;;;19.75;14.80;;;;;;;15.38;63.07;102081.56;144994;593;4574;-87
2021/11/16 16:14:41;;;;;;;19.12;12.85;;;;;;;15.41;62.77;102087.78;144994;647;4586;-87
2021/11/16 16:17:12;;;;;;;22.83;14.32;;;;;;;15.50;62.85;102086.31;144993;598;6000;-88
2021/11/16 16:19:41;;;;;;;19.12;12.50;;;;;;;15.52;62.77;102085.50;144992;575;6002;-88
2021/11/16 16:22:28;;;;;;;16.02;11.88;;;;;;;15.46;62.92;102081.81;144992;634;6002;-90
2021/11/16 16:24:55;;;;;;;13.52;11.90;;;;;;;15.49;62.86;102090.63;144992;611;6002;-86
2021/11/16 16:27:23;;;;;;;14.87;12.00;;;;;;;15.49;62.82;102084.50;144992;572;6002;-90
2021/11/16 16:29:50;;;;;;;21.15;14.68;;;;;;;15.46;62.58;102087.03;144991;609;6002;-87
2021/11/16 16:32:19;;;;;;;21.65;15.63;;;;;;;15.39;62.77;102097.31;144992;578;6002;-87
2021/11/16 16:34:47;;;;;;;19.60;14.82;;;;;;;15.40;63.13;102090.38;144992;591;6002;-87
2021/11/16 16:37:20;;;;;;;17.83;14.45;;;;;;;15.41;63.36;102086.88;144992;731;6002;-87
2021/11/16 16:39:47;;;;;;;18.92;14.80;;;;;;;15.44;63.08;102081.75;144992;636;6002;-86
2021/11/16 16:42:13;;;;;;;19.27;14.40;;;;;;;15.46;62.82;102084.41;144992;640;6002;-86
2021/11/16 16:44:45;;;;;;;21.33;15.63;;;;;;;15.50;63.05;102088.91;144991;563;6002;-87
2021/11/16 16:47:18;;;;;;;19.45;15.40;;;;;;;15.53;63.05;102081.16;144992;581;6002;-88
2021/11/16 16:49:45;;;;;;;17.40;14.68;;;;;;;15.53;62.66;102079.44;144992;570;6002;-87
2021/11/16 16:52:12;;;;;;;16.65;13.25;;;;;;;15.59;62.61;102083.97;144992;588;6002;-87
2021/11/16 16:54:44;;;;;;;18.85;12.80;;;;;;;15.60;62.65;102080.50;144992;574;6002;-88
2021/11/16 16:57:13;;;;;;;15.60;13.62;;;;;;;15.64;62.82;102084.09;144992;618;6002;-88
2021/11/16 16:59:42;;;;;;;20.30;15.85;;;;;;;15.65;62.61;102088.50;144992;572;6002;-89
2021/11/16 17:02:18;;;;;;;22.23;17.98;;;;;;;15.62;63.00;102083.16;144992;583;6002;-88
2021/11/16 17:04:51;;;;;;;23.75;19.10;;;;;;;15.67;62.96;102084.19;144992;636;6002;-89
2021/11/16 17:07:18;;;;;;;23.87;18.50;;;;;;;15.62;62.85;102086.69;144992;585;6002;-89
2021/11/16 17:09:53;;;;;;;19.35;16.40;;;;;;;15.55;63.13;102090.81;144992;588;6002;-87
2021/11/16 17:12:26;;;;;;;22.25;16.10;;;;;;;15.50;63.09;102092.41;144992;571;6002;-87
2021/11/16 17:14:55;;;;;;;18.40;14.85;;;;;;;15.34;63.18;102090.16;144992;582;6002;-89
2021/11/16 17:17:28;;;;;;;18.45;14.20;;;;;;;15.19;64.14;102091.44;144992;602;6002;-86
2021/11/16 17:19:55;;;;;;;16.90;12.52;;;;;;;15.29;63.51;102089.09;144992;572;6002;-86
2021/11/16 17:22:24;;;;;;;15.90;12.55;;;;;;;15.31;63.38;102093.56;144992;584;6002;-89
2021/11/16 17:24:51;;;;;;;15.10;11.27;;;;;;;15.34;63.47;102096.28;144992;579;6002;-85
2021/11/16 17:27:26;;;;;;;15.25;11.90;;;;;;;15.28;63.86;102092.56;144992;575;6002;-89
2021/11/16 17:29:53;;;;;;;;;;;;;;;15.27;63.88;102093.41;144997;906;6002;-85
2021/11/16 17:32:25;;;;;;;13.73;10.32;;;;;;;15.22;63.68;102091.53;144997;566;6002;-89
2021/11/16 17:34:54;;;;;;;15.32;12.37;;;;;;;15.30;63.36;102093.50;144992;740;6002;-86
2021/11/16 17:37:21;;;;;;;12.10;10.13;;;;;;;15.37;63.25;102082.41;144992;578;6002;-87
2021/11/16 17:39:48;;;;;;;17.50;13.38;;;;;;;15.30;63.68;102083.03;144992;566;6002;-88
2021/11/16 17:42:15;;;;;;;17.02;13.55;;;;;;;15.36;63.86;102091.09;144992;599;6002;-85
2021/11/16 17:44:42;;;;;;;14.38;11.48;;;;;;;15.32;63.55;102087.50;144992;576;6002;-85
2021/11/16 17:47:12;;;;;;;11.48;9.52;;;;;;;15.38;63.66;102085.09;144992;613;6002;-87
2021/11/16 17:49:39;;;;;;;10.85;8.48;;;;;;;15.41;63.27;102087.78;144992;575;6002;-84
2021/11/16 17:52:06;;;;;;;8.73;7.87;;;;;;;15.38;63.64;102092.94;144992;570;6002;-86
2021/11/16 17:54:33;;;;;;;11.00;7.82;;;;;;;15.31;64.09;102090.06;144992;566;6002;-86
2021/11/16 17:57:02;;;;;;;10.82;8.90;;;;;;;15.23;64.39;102095.03;144992;569;6002;-86
2021/11/16 17:59:33;;;;;;;8.95;8.02;;;;;;;15.20;65.92;102098.44;144992;570;6002;-83
2021/11/16 18:02:01;;;;;;;9.10;7.15;;;;;;;15.21;65.63;102091.50;144992;588;6002;-84
2021/11/16 18:04:43;;;;;;;11.05;9.15;;;;;;;15.25;66.31;102090.75;144992;592;6002;-88
2021/11/16 18:09:59;;;;;;;12.90;10.10;;;;;;;15.23;65.85;102092.44;144992;582;6004;-87
2021/11/16 18:12:30;;;;;;;11.10;9.90;;;;;;;15.27;66.16;102093.41;144992;598;6004;-87
2021/11/16 18:15:06;;;;;;;10.50;9.40;;;;;;;15.16;66.43;102086.12;144992;566;6004;-85
2021/11/16 18:17:32;;;;;;;11.32;9.48;;;;;;;15.21;66.03;102097.59;144992;616;6004;-88
2021/11/16 18:20:00;;;;;;;11.18;9.48;;;;;;;15.17;66.71;102092.22;144992;581;6004;-85
2021/11/16 18:22:27;;;;;;;12.37;10.13;;;;;;;15.15;65.96;102084.31;144992;578;6004;-85
2021/11/16 18:24:54;;;;;;;13.88;10.52;;;;;;;15.16;66.14;102083.50;144992;573;6004;-83
2021/11/16 18:27:22;;;;;;;15.70;10.25;;;;;;;15.17;66.06;102087.00;144992;605;6004;-85
2021/11/16 18:29:53;;;;;;;12.80;10.75;;;;;;;15.23;65.79;102081.97;144992;595;6004;-86
2021/11/16 18:32:20;;;;;;;15.65;11.45;;;;;;;15.26;66.03;102073.34;144992;646;6004;-85
2021/11/16 18:34:50;;;;;;;16.27;12.30;;;;;;;15.30;66.09;102075.19;144992;593;6004;-87
2021/11/16 18:37:18;;;;;;;14.40;11.40;;;;;;;15.32;66.29;102070.87;144992;583;6004;-83
2021/11/16 18:39:47;;;;;;;12.63;11.10;;;;;;;15.34;66.07;102072.72;144992;572;6004;-85